createdAt,value
2023-05-01T00:02:22.854Z,153446.53
2023-05-01T00:04:53.205Z,153440.00
2023-05-01T00:07:23.388Z,153415.38
2023-05-01T00:09:54.393Z,153411.53
2023-05-01T00:12:24.770Z,153394.66
2023-05-01T00:14:58.051Z,153360.94
2023-05-01T00:17:28.504Z,153364.84
2023-05-01T00:19:59.203Z,153346.69
2023-05-01T00:22:29.529Z,153337.59
2023-05-01T00:24:59.686Z,153333.69
2023-05-01T00:27:29.942Z,153337.59
2023-05-01T00:30:03.658Z,153349.28
2023-05-01T00:32:34.674Z,153357.09
2023-05-01T00:35:04.888Z,153350.56
2023-05-01T00:37:35.334Z,153353.19
2023-05-01T00:40:05.506Z,153341.44
2023-05-01T00:42:42.652Z,153340.16
2023-05-01T00:45:16.713Z,153350.56
2023-05-01T00:47:50.777Z,153333.69
2023-05-01T00:50:21.351Z,153329.81
2023-05-01T00:52:51.623Z,153328.53
2023-05-01T00:55:22.140Z,153323.34
2023-05-01T00:57:53.028Z,153345.41
2023-05-01T01:00:26.382Z,153346.69
2023-05-01T01:02:56.757Z,153349.28
2023-05-01T01:05:30.824Z,153351.84
2023-05-01T01:08:14.127Z,153354.47
2023-05-01T01:10:54.062Z,153353.19
2023-05-01T01:13:31.255Z,153345.41
2023-05-01T01:16:12.729Z,153359.66
2023-05-01T01:18:51.570Z,153351.84
2023-05-01T01:21:28.924Z,153340.16
2023-05-01T01:24:25.262Z,153350.56
2023-05-01T01:27:14.142Z,153354.47
2023-05-01T01:29:58.159Z,153349.28
2023-05-01T01:33:04.028Z,153350.56
2023-05-01T01:35:40.157Z,153346.69
2023-05-01T01:38:19.060Z,153323.34
2023-05-01T01:41:00.189Z,153311.66
2023-05-01T01:43:36.124Z,153309.06
2023-05-01T01:46:09.797Z,153305.19
2023-05-01T01:48:41.651Z,153307.78
2023-05-01T01:51:19.527Z,153283.19
2023-05-01T01:53:54.812Z,153258.56
2023-05-01T01:56:29.018Z,153272.81
2023-05-01T01:59:00.006Z,153266.31
2023-05-01T02:01:32.069Z,153258.56
2023-05-01T02:04:04.175Z,153257.22
2023-05-01T02:06:38.319Z,153252.03
2023-05-01T02:09:10.006Z,153237.78
2023-05-01T02:11:42.329Z,153230.03
2023-05-01T02:14:14.494Z,153211.88
2023-05-01T02:16:46.530Z,153195.06
2023-05-01T02:19:18.357Z,153191.16
2023-05-01T02:21:53.417Z,153160.09
2023-05-01T02:24:27.099Z,153110.88
2023-05-01T02:26:59.926Z,153118.63
2023-05-01T02:29:31.048Z,153100.53
2023-05-01T02:32:01.288Z,153090.16
2023-05-01T02:34:31.535Z,153095.34
2023-05-01T02:37:04.641Z,153066.84
2023-05-01T02:39:35.412Z,153060.38
2023-05-01T02:42:07.775Z,153061.66
2023-05-01T02:44:46.553Z,153056.50
2023-05-01T02:47:20.721Z,153031.88
2023-05-01T02:49:52.386Z,153042.25
2023-05-01T02:52:26.031Z,153033.16
2023-05-01T02:55:07.260Z,153029.28
2023-05-01T02:57:37.709Z,153021.53
2023-05-01T03:00:09.628Z,153020.19
2023-05-01T03:02:39.910Z,152998.22
2023-05-01T03:05:11.062Z,153007.28
2023-05-01T03:07:43.889Z,153012.47
2023-05-01T03:10:14.843Z,153003.38
2023-05-01T03:12:45.027Z,152978.78
2023-05-01T03:15:16.709Z,152963.25
2023-05-01T03:17:46.998Z,152967.16
2023-05-01T03:20:17.454Z,152955.47
2023-05-01T03:22:50.230Z,152951.63
2023-05-01T03:25:20.655Z,152937.34
2023-05-01T03:27:54.247Z,152937.34
2023-05-01T03:30:28.219Z,152917.91
2023-05-01T03:32:58.552Z,152916.63
2023-05-01T03:35:33.808Z,152908.84
2023-05-01T03:38:06.790Z,152907.56
2023-05-01T03:40:55.252Z,152907.56
2023-05-01T03:43:51.313Z,152908.84
2023-05-01T03:46:41.206Z,152924.38
2023-05-01T03:49:17.456Z,152925.66
2023-05-01T03:51:50.821Z,152915.31
2023-05-01T03:54:24.799Z,152910.13
2023-05-01T03:57:01.760Z,152916.63
2023-05-01T03:59:31.936Z,152924.38
2023-05-01T04:02:02.228Z,152929.56
2023-05-01T04:04:36.330Z,152930.84
2023-05-01T04:07:07.177Z,152932.16
2023-05-01T04:09:40.103Z,152927.00
2023-05-01T04:12:10.689Z,152938.63
2023-05-01T04:14:40.865Z,152924.38
2023-05-01T04:17:11.082Z,152919.19
2023-05-01T04:19:41.456Z,152951.63
2023-05-01T04:22:11.694Z,152947.75
2023-05-01T04:24:45.925Z,152961.97
2023-05-01T04:27:16.168Z,152955.47
2023-05-01T04:29:46.462Z,152958.09
2023-05-01T04:32:17.426Z,152972.34
2023-05-01T04:34:47.704Z,152983.97
2023-05-01T04:37:18.895Z,152981.41
2023-05-01T04:39:52.031Z,152983.97
2023-05-01T04:42:32.868Z,152986.59
2023-05-01T04:45:04.610Z,152991.75
2023-05-01T04:47:39.090Z,153020.19
2023-05-01T04:50:10.302Z,153031.88
2023-05-01T04:52:40.552Z,153060.38
2023-05-01T04:55:13.783Z,153106.97
2023-05-01T04:58:02.906Z,153131.59
2023-05-01T05:00:34.191Z,153132.88
2023-05-01T05:03:05.497Z,153134.22
2023-05-01T05:05:35.894Z,153147.13
2023-05-01T05:08:09.632Z,153144.56
2023-05-01T05:11:00.772Z,153186.00
2023-05-01T05:13:39.125Z,153191.16
2023-05-01T05:16:15.340Z,153192.47
2023-05-01T05:18:45.686Z,153235.22
2023-05-01T05:21:16.139Z,153276.66
2023-05-01T05:23:56.288Z,153278.00
2023-05-01T05:26:29.399Z,153338.88
2023-05-01T05:29:03.925Z,153398.53
2023-05-01T05:31:34.165Z,153473.72
2023-05-01T05:34:04.649Z,153487.97
2023-05-01T05:36:35.781Z,153498.34
2023-05-01T05:39:06.082Z,153499.63
2023-05-01T05:41:39.534Z,153482.81
2023-05-01T05:44:09.695Z,153548.91
2023-05-01T05:46:39.915Z,153593.00
2023-05-01T05:49:10.368Z,153643.56
2023-05-01T05:51:40.606Z,153664.34
2023-05-01T05:54:12.325Z,153657.84
2023-05-01T05:56:45.215Z,153665.66
2023-05-01T05:59:17.280Z,153664.34
2023-05-01T06:01:48.152Z,153682.50
2023-05-01T06:04:18.619Z,153725.34
2023-05-01T06:06:49.089Z,153765.56
2023-05-01T06:09:19.399Z,153791.50
2023-05-01T06:11:52.383Z,153792.78
2023-05-01T06:14:22.570Z,153875.84
2023-05-01T06:16:52.838Z,153897.94
2023-05-01T06:19:23.394Z,153961.50
2023-05-01T06:21:58.345Z,153993.97
2023-05-01T06:24:29.869Z,153952.47
2023-05-01T06:27:05.228Z,154001.78
2023-05-01T06:29:35.662Z,154009.56
2023-05-01T06:32:06.054Z,154008.28
2023-05-01T06:34:38.159Z,154069.31
2023-05-01T06:37:08.371Z,154142.06
2023-05-01T06:39:38.601Z,154148.53
2023-05-01T06:42:15.965Z,154135.59
2023-05-01T06:44:46.243Z,154204.38
2023-05-01T06:47:16.478Z,154216.09
2023-05-01T06:49:46.674Z,154270.66
2023-05-01T06:52:16.821Z,154297.91
2023-05-01T06:54:46.971Z,154377.22
2023-05-01T06:57:20.619Z,154465.63
2023-05-01T06:59:50.780Z,154450.03
2023-05-01T07:02:21.344Z,154348.63
2023-05-01T07:04:51.646Z,154320.09
2023-05-01T07:07:23.111Z,154340.88
2023-05-01T07:09:53.550Z,154408.44
2023-05-01T07:12:26.364Z,154417.50
2023-05-01T07:14:57.139Z,154444.81
2023-05-01T07:17:27.676Z,154434.44
2023-05-01T07:19:58.095Z,154587.84
2023-05-01T07:22:29.178Z,154470.81
2023-05-01T07:25:01.437Z,154550.09
2023-05-01T07:27:34.235Z,154565.69
2023-05-01T07:30:05.421Z,154712.72
2023-05-01T07:32:35.689Z,154734.81
2023-05-01T07:35:05.851Z,154723.13
2023-05-01T07:37:36.121Z,154720.50
2023-05-01T07:40:07.615Z,154816.78
2023-05-01T07:42:40.381Z,154730.88
2023-05-01T07:45:11.998Z,154662.00
2023-05-01T07:47:42.326Z,154866.28
2023-05-01T07:50:14.220Z,154764.72
2023-05-01T07:52:44.812Z,154828.47
2023-05-01T07:55:15.294Z,154811.56
2023-05-01T07:57:48.023Z,154907.88
2023-05-01T08:00:19.446Z,155019.84
2023-05-01T08:02:56.549Z,155048.44
2023-05-01T08:05:28.809Z,154887.06
2023-05-01T08:08:05.154Z,154936.53
2023-05-01T08:10:38.849Z,154894.84
2023-05-01T08:13:19.661Z,154956.06
2023-05-01T08:15:57.184Z,155051.06
2023-05-01T08:18:27.994Z,155032.81
2023-05-01T08:21:03.076Z,154939.09
2023-05-01T08:23:37.396Z,154978.16
2023-05-01T08:26:12.944Z,155078.38
2023-05-01T08:28:52.204Z,155017.22
2023-05-01T08:31:28.827Z,154941.72
2023-05-01T08:34:04.209Z,155014.59
2023-05-01T08:36:39.108Z,155123.97
2023-05-01T08:39:17.036Z,155170.88
2023-05-01T08:41:52.942Z,155002.88
2023-05-01T08:44:31.034Z,155019.84
2023-05-01T08:47:12.716Z,155004.19
2023-05-01T08:49:50.525Z,155043.22
2023-05-01T08:52:28.661Z,155100.59
2023-05-01T08:55:01.683Z,155092.69
2023-05-01T08:57:33.645Z,155065.38
2023-05-01T09:00:08.035Z,155121.41
2023-05-01T09:02:39.655Z,154941.72
2023-05-01T09:05:11.708Z,155014.59
2023-05-01T09:07:43.967Z,155090.13
2023-05-01T09:10:15.004Z,155113.56
2023-05-01T09:12:46.406Z,155105.78
2023-05-01T09:15:20.112Z,155157.84
2023-05-01T09:17:51.255Z,155255.53
2023-05-01T09:20:22.694Z,155331.09
2023-05-01T09:22:53.266Z,155289.41
2023-05-01T09:25:23.424Z,155408.00
2023-05-01T09:27:54.146Z,155376.69
2023-05-01T09:30:37.913Z,155391.03
2023-05-01T09:33:09.584Z,155546.09
2023-05-01T09:35:53.759Z,155555.25
2023-05-01T09:38:28.426Z,155520.03
2023-05-01T09:41:07.019Z,155548.72
2023-05-01T09:43:37.272Z,155434.03
2023-05-01T09:46:12.214Z,155428.84
2023-05-01T09:48:42.547Z,155295.91
2023-05-01T09:51:27.285Z,155426.19
2023-05-01T09:53:59.422Z,155495.28
2023-05-01T09:56:30.363Z,155490.06
2023-05-01T09:59:01.841Z,155417.06
2023-05-01T10:01:46.735Z,155380.63
2023-05-01T10:04:17.754Z,155516.09
2023-05-01T10:06:47.954Z,155413.22
2023-05-01T10:09:30.682Z,155632.19
2023-05-01T10:12:01.257Z,155653.03
2023-05-01T10:14:34.018Z,155564.41
2023-05-01T10:17:22.513Z,155408.00
2023-05-01T10:19:53.713Z,155374.13
2023-05-01T10:22:24.020Z,155361.06
2023-05-01T10:24:54.618Z,155355.88
2023-05-01T10:27:27.753Z,155314.16
2023-05-01T10:29:58.406Z,155417.06
2023-05-01T10:32:32.720Z,155413.22
2023-05-01T10:35:07.264Z,155520.03
2023-05-01T10:37:43.790Z,155628.28
2023-05-01T10:40:52.919Z,155792.59
2023-05-01T10:43:28.077Z,155749.50
2023-05-01T10:46:19.415Z,155607.41
2023-05-01T10:49:02.162Z,155517.41
2023-05-01T10:51:32.485Z,155646.50
2023-05-01T10:54:27.684Z,155664.75
2023-05-01T10:57:01.505Z,155786.03
2023-05-01T10:59:51.823Z,155916.50
2023-05-01T11:02:26.740Z,155936.06
2023-05-01T11:05:00.059Z,155840.81
2023-05-01T11:07:31.826Z,155634.78
2023-05-01T11:10:02.395Z,155796.53
2023-05-01T11:12:54.538Z,155900.81
2023-05-01T11:15:34.026Z,155817.38
2023-05-01T11:18:06.320Z,155686.94
2023-05-01T11:21:06.086Z,155739.06
2023-05-01T11:23:36.317Z,155844.72
2023-05-01T11:26:10.269Z,155792.59
2023-05-01T11:28:42.689Z,155707.78
2023-05-01T11:31:13.565Z,155744.28
2023-05-01T11:33:43.802Z,155663.47
2023-05-01T11:36:17.278Z,155831.72
2023-05-01T11:38:53.969Z,155989.56
2023-05-01T11:41:24.532Z,156019.56
2023-05-01T11:43:55.581Z,156174.91
2023-05-01T11:46:32.402Z,156242.78
2023-05-01T11:49:04.138Z,156271.53
2023-05-01T11:51:37.029Z,156263.69
2023-05-01T11:54:09.512Z,156203.63
2023-05-01T11:56:41.254Z,156120.03
2023-05-01T11:59:17.385Z,156242.78
2023-05-01T12:01:50.037Z,156351.16
2023-05-01T12:04:31.949Z,156134.41
2023-05-01T12:07:07.255Z,156073.09
2023-05-01T12:09:37.837Z,156126.59
2023-05-01T12:12:09.120Z,156195.84
2023-05-01T12:14:39.594Z,156157.91
2023-05-01T12:17:12.157Z,155994.78
2023-05-01T12:19:52.030Z,156028.72
2023-05-01T12:22:25.144Z,156071.78
2023-05-01T12:24:56.442Z,155990.91
2023-05-01T12:27:28.831Z,156189.28
2023-05-01T12:30:00.318Z,156117.47
2023-05-01T12:32:35.202Z,156187.97
2023-05-01T12:35:16.342Z,156309.38
2023-05-01T12:37:50.163Z,156242.78
2023-05-01T12:40:23.138Z,155988.28
2023-05-01T12:42:59.473Z,156053.50
2023-05-01T12:45:30.226Z,156244.09
2023-05-01T12:48:00.558Z,156193.19
2023-05-01T12:50:30.872Z,156195.84
2023-05-01T12:53:09.920Z,156037.84
2023-05-01T12:55:48.908Z,155998.72
2023-05-01T12:58:19.725Z,156078.31
2023-05-01T13:00:52.717Z,156112.25
2023-05-01T13:03:28.212Z,156121.38
2023-05-01T13:06:01.065Z,156070.44
2023-05-01T13:08:36.792Z,156002.63
2023-05-01T13:11:13.663Z,155898.22
2023-05-01T13:13:44.204Z,156002.63
2023-05-01T13:16:16.612Z,156165.75
2023-05-01T13:18:48.366Z,156195.84
2023-05-01T13:21:19.893Z,156075.72
2023-05-01T13:24:01.871Z,156096.59
2023-05-01T13:26:33.836Z,156093.94
2023-05-01T13:29:06.027Z,156122.69
2023-05-01T13:31:39.311Z,156001.34
2023-05-01T13:34:09.589Z,155868.22
2023-05-01T13:36:40.259Z,155987.00
2023-05-01T13:39:13.129Z,156063.94
2023-05-01T13:41:46.873Z,156066.56
2023-05-01T13:44:17.957Z,156169.69
2023-05-01T13:46:49.350Z,156134.41
2023-05-01T13:49:23.746Z,156210.16
2023-05-01T13:51:55.650Z,156255.88
2023-05-01T13:54:30.323Z,156208.84
2023-05-01T13:57:00.956Z,156253.25
2023-05-01T13:59:38.802Z,156284.56
2023-05-01T14:02:23.704Z,156356.41
2023-05-01T14:04:54.168Z,156169.69
2023-05-01T14:07:26.020Z,156140.97
2023-05-01T14:10:00.097Z,156215.41
2023-05-01T14:12:32.808Z,156194.50
2023-05-01T14:15:03.741Z,156236.28
2023-05-01T14:17:36.050Z,156250.66
2023-05-01T14:20:07.194Z,156092.66
2023-05-01T14:22:45.900Z,156227.16
2023-05-01T14:25:26.650Z,156301.56
2023-05-01T14:27:58.276Z,156321.13
2023-05-01T14:30:33.788Z,156218.00
2023-05-01T14:33:05.197Z,156237.56
2023-05-01T14:35:35.658Z,156310.69
2023-05-01T14:38:11.926Z,156220.63
2023-05-01T14:40:46.397Z,156180.13
2023-05-01T14:43:21.383Z,156244.09
2023-05-01T14:45:53.127Z,156246.72
2023-05-01T14:48:26.146Z,156241.50
2023-05-01T14:50:58.360Z,156210.16
2023-05-01T14:53:29.408Z,156236.28
2023-05-01T14:56:02.376Z,156075.72
2023-05-01T14:58:32.713Z,156088.75
2023-05-01T15:01:03.209Z,156084.81
2023-05-01T15:03:33.934Z,156117.47
2023-05-01T15:06:07.378Z,156037.84
2023-05-01T15:08:38.377Z,156079.59
2023-05-01T15:11:11.695Z,156044.38
2023-05-01T15:13:42.851Z,156087.44
2023-05-01T15:16:13.800Z,156062.66
2023-05-01T15:18:46.431Z,156063.94
2023-05-01T15:21:16.675Z,156037.84
2023-05-01T15:23:47.204Z,156011.78
2023-05-01T15:26:23.092Z,156041.78
2023-05-01T15:28:53.960Z,156060.03
2023-05-01T15:31:28.222Z,156058.72
2023-05-01T15:33:58.521Z,156015.66
2023-05-01T15:36:28.999Z,156000.00
2023-05-01T15:38:59.266Z,156062.66
2023-05-01T15:41:32.132Z,156054.81
2023-05-01T15:44:02.400Z,156005.22
2023-05-01T15:46:32.684Z,155983.06
2023-05-01T15:49:03.064Z,155943.88
2023-05-01T15:51:37.535Z,155913.88
2023-05-01T15:54:09.471Z,155898.22
2023-05-01T15:56:42.603Z,155874.72
2023-05-01T15:59:14.567Z,155847.38
2023-05-01T16:01:46.000Z,155799.09
2023-05-01T16:04:17.895Z,155827.81
2023-05-01T16:06:50.548Z,155863.00
2023-05-01T16:09:21.572Z,155791.25
2023-05-01T16:11:54.508Z,155793.88
2023-05-01T16:14:24.705Z,155759.91
2023-05-01T16:16:55.340Z,155673.88
2023-05-01T16:19:25.627Z,155646.50
2023-05-01T16:21:55.835Z,155608.72
2023-05-01T16:24:28.369Z,155582.66
2023-05-01T16:27:01.187Z,155551.34
2023-05-01T16:29:31.910Z,155513.53
2023-05-01T16:32:02.253Z,155552.69
2023-05-01T16:34:32.477Z,155496.56
2023-05-01T16:37:02.711Z,155466.59
2023-05-01T16:39:32.918Z,155423.63
2023-05-01T16:42:06.521Z,155417.06
2023-05-01T16:44:39.409Z,155404.06
2023-05-01T16:47:09.842Z,155376.69
2023-05-01T16:49:43.864Z,155348.03
2023-05-01T16:52:15.832Z,155323.28
2023-05-01T16:54:46.214Z,155315.44
2023-05-01T16:57:19.288Z,155282.84
2023-05-01T16:59:49.449Z,155265.94
2023-05-01T17:02:19.798Z,155229.50
2023-05-01T17:04:50.240Z,155207.31
2023-05-01T17:07:20.545Z,155193.00
2023-05-01T17:09:50.738Z,155195.63
2023-05-01T17:12:23.623Z,155172.16
2023-05-01T17:14:54.442Z,155131.81
2023-05-01T17:17:25.317Z,155142.22
2023-05-01T17:19:55.689Z,155095.38
2023-05-01T17:22:27.859Z,155073.16
2023-05-01T17:25:02.507Z,155047.16
2023-05-01T17:27:35.310Z,155036.72
2023-05-01T17:30:05.508Z,155004.19
2023-05-01T17:32:37.416Z,155017.22
2023-05-01T17:35:09.240Z,154953.44
2023-05-01T17:37:40.416Z,154914.38
2023-05-01T17:40:13.226Z,154910.50
2023-05-01T17:42:46.020Z,154918.28
2023-05-01T17:45:19.076Z,154888.38
2023-05-01T17:47:49.284Z,154876.69
2023-05-01T17:50:19.516Z,154875.34
2023-05-01T17:52:49.895Z,154823.25
2023-05-01T17:55:20.143Z,154816.78
2023-05-01T17:57:53.157Z,154845.38
2023-05-01T18:00:24.529Z,154812.88
2023-05-01T18:02:54.896Z,154792.06
2023-05-01T18:05:25.654Z,154768.63
2023-05-01T18:07:56.242Z,154750.41
2023-05-01T18:10:30.418Z,154741.34
2023-05-01T18:13:03.267Z,154756.94
2023-05-01T18:15:36.622Z,154714.00
2023-05-01T18:18:07.050Z,154686.72
2023-05-01T18:20:37.375Z,154682.81
2023-05-01T18:23:08.140Z,154637.28
2023-05-01T18:25:42.272Z,154619.06
2023-05-01T18:28:16.642Z,154578.72
2023-05-01T18:30:47.155Z,154546.19
2023-05-01T18:33:19.368Z,154537.09
2023-05-01T18:35:49.599Z,154513.72
2023-05-01T18:38:19.810Z,154511.09
2023-05-01T18:40:50.286Z,154481.22
2023-05-01T18:43:23.126Z,154459.13
2023-05-01T18:45:53.601Z,154448.75
2023-05-01T18:48:23.854Z,154450.03
2023-05-01T18:51:07.196Z,154452.59
2023-05-01T18:53:39.031Z,154401.91
2023-05-01T18:56:09.750Z,154395.44
2023-05-01T18:58:42.603Z,154390.25
2023-05-01T19:01:12.906Z,154368.13
2023-05-01T19:03:43.141Z,154398.00
2023-05-01T19:06:13.512Z,154391.53
2023-05-01T19:08:43.756Z,154400.63
2023-05-01T19:11:14.075Z,154395.44
2023-05-01T19:13:47.181Z,154404.53
2023-05-01T19:16:17.524Z,154361.66
2023-05-01T19:18:48.629Z,154362.94
2023-05-01T19:21:19.004Z,154352.53
2023-05-01T19:23:49.888Z,154336.94
2023-05-01T19:26:20.082Z,154313.50
2023-05-01T19:28:52.862Z,154292.72
2023-05-01T19:31:25.436Z,154283.63
2023-05-01T19:33:56.899Z,154287.53
2023-05-01T19:36:27.106Z,154269.38
2023-05-01T19:38:57.261Z,154251.16
2023-05-01T19:41:27.533Z,154245.97
2023-05-01T19:44:00.285Z,154247.25
2023-05-01T19:46:30.619Z,154243.34
2023-05-01T19:49:00.849Z,154229.06
2023-05-01T19:51:33.256Z,154192.69
2023-05-01T19:54:05.048Z,154177.13
2023-05-01T19:56:35.345Z,154188.81
2023-05-01T19:59:08.163Z,154179.69
2023-05-01T20:01:39.185Z,154158.94
2023-05-01T20:04:09.430Z,154169.31
2023-05-01T20:06:39.799Z,154156.34
2023-05-01T20:09:10.007Z,154143.34
2023-05-01T20:11:40.227Z,154151.16
2023-05-01T20:14:13.097Z,154126.47
2023-05-01T20:16:43.436Z,154108.28
2023-05-01T20:19:14.133Z,154091.44
2023-05-01T20:21:44.334Z,154092.72
2023-05-01T20:24:14.531Z,154069.31
2023-05-01T20:26:44.818Z,154069.31
2023-05-01T20:29:17.571Z,154056.38
2023-05-01T20:31:47.742Z,154023.88
2023-05-01T20:34:17.913Z,154013.47
2023-05-01T20:36:48.260Z,153993.97
2023-05-01T20:39:18.483Z,153990.06
2023-05-01T20:41:48.683Z,153997.88
2023-05-01T20:44:21.538Z,153986.19
2023-05-01T20:46:51.897Z,153970.59
2023-05-01T20:49:22.122Z,153978.41
2023-05-01T20:51:52.329Z,153961.50
2023-05-01T20:54:22.640Z,153948.56
2023-05-01T20:56:52.790Z,153960.22
2023-05-01T20:59:25.630Z,153953.75
2023-05-01T21:01:56.144Z,153926.47
2023-05-01T21:04:26.758Z,153903.13
2023-05-01T21:06:57.049Z,153907.00
2023-05-01T21:09:27.266Z,153891.44
2023-05-01T21:11:57.698Z,153888.84
2023-05-01T21:14:30.998Z,153873.28
2023-05-01T21:17:03.773Z,153855.09
2023-05-01T21:19:35.765Z,153848.63
2023-05-01T21:22:16.953Z,153847.28
2023-05-01T21:24:48.024Z,153840.81
2023-05-01T21:27:18.697Z,153833.06
2023-05-01T21:29:58.008Z,153823.97
2023-05-01T21:32:32.792Z,153843.44
2023-05-01T21:35:03.897Z,153839.53
2023-05-01T21:37:34.167Z,153817.44
2023-05-01T21:40:05.101Z,153798.03
2023-05-01T21:42:42.448Z,153790.22
2023-05-01T21:45:17.670Z,153778.56
2023-05-01T21:47:50.425Z,153757.78
2023-05-01T21:50:22.154Z,153751.28
2023-05-01T21:52:53.473Z,153739.63
2023-05-01T21:55:25.507Z,153726.66
2023-05-01T21:57:56.188Z,153744.81
2023-05-01T22:00:32.450Z,153729.25
2023-05-01T22:03:04.346Z,153711.09
2023-05-01T22:05:36.041Z,153704.63
2023-05-01T22:08:06.290Z,153692.84
2023-05-01T22:10:37.080Z,153677.31
2023-05-01T22:13:09.843Z,153668.22
2023-05-01T22:15:44.039Z,153659.19
2023-05-01T22:18:18.054Z,153657.84
2023-05-01T22:20:48.536Z,153651.38
2023-05-01T22:23:18.724Z,153651.38
2023-05-01T22:25:49.055Z,153643.56
2023-05-01T22:28:20.912Z,153631.91
2023-05-01T22:30:54.396Z,153622.81
2023-05-01T22:33:24.596Z,153626.72
2023-05-01T22:35:56.642Z,153618.94
2023-05-01T22:38:26.963Z,153596.91
2023-05-01T22:40:57.418Z,153615.06
2023-05-01T22:43:27.593Z,153611.19
2023-05-01T22:46:00.814Z,153587.81
2023-05-01T22:48:31.224Z,153594.28
2023-05-01T22:51:01.565Z,153574.81
2023-05-01T22:53:31.823Z,153580.06
2023-05-01T22:56:02.188Z,153604.72
2023-05-01T22:58:32.435Z,153616.34
2023-05-01T23:01:05.434Z,153608.56
2023-05-01T23:03:38.012Z,153618.94
2023-05-01T23:06:11.947Z,153629.28
2023-05-01T23:08:42.131Z,153613.75
2023-05-01T23:11:14.276Z,153596.91
2023-05-01T23:13:49.416Z,153598.19
2023-05-01T23:16:22.470Z,153590.44
2023-05-01T23:18:52.715Z,153572.25
2023-05-01T23:21:23.012Z,153569.66
2023-05-01T23:23:53.202Z,153563.19
2023-05-01T23:26:29.019Z,153578.72
2023-05-01T23:29:00.236Z,153550.25
2023-05-01T23:31:33.045Z,153537.25
2023-05-01T23:34:05.292Z,153529.47
2023-05-01T23:36:35.605Z,153552.81
2023-05-01T23:39:06.240Z,153538.53
2023-05-01T23:41:36.390Z,153537.25
2023-05-01T23:44:06.741Z,153535.97
2023-05-01T23:46:39.944Z,153512.63
2023-05-01T23:49:10.250Z,153513.91
2023-05-01T23:51:40.613Z,153513.91
2023-05-01T23:54:11.156Z,153482.81
2023-05-01T23:56:41.371Z,153469.81
2023-05-01T23:59:12.167Z,153490.56
